sensor_id;sensor_type;location;lat;lon;timestamp;P1;durP1;ratioP1;P2;durP2;ratioP2
77332;SDS011;66408;51.326;12.070;2023-05-10T00:00:20;4.57;;;2.75;;
77332;SDS011;66408;51.326;12.070;2023-05-10T00:05:15;4.78;;;2.60;;
77332;SDS011;66408;51.326;12.070;2023-05-10T00:07:42;6.68;;;2.88;;
77332;SDS011;66408;51.326;12.070;2023-05-10T00:10:11;4.28;;;2.60;;
77332;SDS011;66408;51.326;12.070;2023-05-10T00:12:38;5.07;;;2.90;;
77332;SDS011;66408;51.326;12.070;2023-05-10T00:15:05;4.68;;;2.67;;
77332;SDS011;66408;51.326;12.070;2023-05-10T00:17:33;6.30;;;2.75;;
77332;SDS011;66408;51.326;12.070;2023-05-10T00:20:00;5.45;;;2.72;;
77332;SDS011;66408;51.326;12.070;2023-05-10T00:22:27;4.90;;;3.03;;
77332;SDS011;66408;51.326;12.070;2023-05-10T00:24:53;5.47;;;2.97;;
77332;SDS011;66408;51.326;12.070;2023-05-10T00:27:20;4.88;;;3.03;;
77332;SDS011;66408;51.326;12.070;2023-05-10T00:29:47;5.18;;;2.80;;
77332;SDS011;66408;51.326;12.070;2023-05-10T00:32:14;6.85;;;2.70;;
77332;SDS011;66408;51.326;12.070;2023-05-10T00:34:42;4.28;;;2.65;;
77332;SDS011;66408;51.326;12.070;2023-05-10T00:37:08;6.22;;;3.13;;
77332;SDS011;66408;51.326;12.070;2023-05-10T00:39:37;5.13;;;2.80;;
77332;SDS011;66408;51.326;12.070;2023-05-10T00:42:04;4.43;;;2.72;;
77332;SDS011;66408;51.326;12.070;2023-05-10T00:44:30;7.63;;;3.10;;
77332;SDS011;66408;51.326;12.070;2023-05-10T00:46:57;4.00;;;2.60;;
77332;SDS011;66408;51.326;12.070;2023-05-10T00:49:25;6.82;;;3.13;;
77332;SDS011;66408;51.326;12.070;2023-05-10T00:51:52;6.32;;;3.22;;
77332;SDS011;66408;51.326;12.070;2023-05-10T00:54:19;6.85;;;3.17;;
77332;SDS011;66408;51.326;12.070;2023-05-10T00:56:46;7.25;;;2.75;;
77332;SDS011;66408;51.326;12.070;2023-05-10T00:59:16;5.60;;;2.95;;
77332;SDS011;66408;51.326;12.070;2023-05-10T01:04:12;5.75;;;2.90;;
77332;SDS011;66408;51.326;12.070;2023-05-10T01:06:40;6.40;;;3.30;;
77332;SDS011;66408;51.326;12.070;2023-05-10T01:09:07;5.40;;;3.10;;
77332;SDS011;66408;51.326;12.070;2023-05-10T01:11:34;4.90;;;3.10;;
77332;SDS011;66408;51.326;12.070;2023-05-10T01:14:03;5.95;;;2.97;;
77332;SDS011;66408;51.326;12.070;2023-05-10T01:16:32;5.85;;;3.13;;
77332;SDS011;66408;51.326;12.070;2023-05-10T01:19:03;5.82;;;3.17;;
77332;SDS011;66408;51.326;12.070;2023-05-10T01:21:43;5.32;;;3.25;;
77332;SDS011;66408;51.326;12.070;2023-05-10T01:27:17;6.10;;;3.03;;
77332;SDS011;66408;51.326;12.070;2023-05-10T01:35:43;6.32;;;3.20;;
77332;SDS011;66408;51.326;12.070;2023-05-10T01:38:21;4.78;;;3.05;;
77332;SDS011;66408;51.326;12.070;2023-05-10T01:46:36;6.03;;;3.17;;
77332;SDS011;66408;51.326;12.070;2023-05-10T01:51:36;4.32;;;2.70;;
77332;SDS011;66408;51.326;12.070;2023-05-10T01:54:08;7.05;;;2.80;;
77332;SDS011;66408;51.326;12.070;2023-05-10T01:56:37;6.63;;;2.92;;
77332;SDS011;66408;51.326;12.070;2023-05-10T01:59:08;5.88;;;2.85;;
77332;SDS011;66408;51.326;12.070;2023-05-10T02:01:39;8.57;;;3.38;;
77332;SDS011;66408;51.326;12.070;2023-05-10T02:04:07;5.18;;;2.90;;
77332;SDS011;66408;51.326;12.070;2023-05-10T02:06:36;5.13;;;2.67;;
77332;SDS011;66408;51.326;12.070;2023-05-10T02:09:06;5.20;;;3.17;;
77332;SDS011;66408;51.326;12.070;2023-05-10T02:14:05;4.72;;;2.80;;
77332;SDS011;66408;51.326;12.070;2023-05-10T02:16:34;4.45;;;2.67;;
77332;SDS011;66408;51.326;12.070;2023-05-10T02:19:02;5.82;;;2.83;;
77332;SDS011;66408;51.326;12.070;2023-05-10T02:21:30;4.28;;;2.95;;
77332;SDS011;66408;51.326;12.070;2023-05-10T02:23:59;4.88;;;3.17;;
77332;SDS011;66408;51.326;12.070;2023-05-10T02:26:29;4.03;;;2.80;;
77332;SDS011;66408;51.326;12.070;2023-05-10T02:29:00;5.22;;;2.83;;
77332;SDS011;66408;51.326;12.070;2023-05-10T02:31:30;5.00;;;3.05;;
77332;SDS011;66408;51.326;12.070;2023-05-10T02:33:59;5.25;;;3.00;;
77332;SDS011;66408;51.326;12.070;2023-05-10T02:36:27;3.72;;;2.53;;
77332;SDS011;66408;51.326;12.070;2023-05-10T02:38:55;6.25;;;2.95;;
77332;SDS011;66408;51.326;12.070;2023-05-10T02:41:23;4.85;;;3.10;;
77332;SDS011;66408;51.326;12.070;2023-05-10T02:43:53;6.32;;;3.45;;
77332;SDS011;66408;51.326;12.070;2023-05-10T02:46:25;6.05;;;3.10;;
77332;SDS011;66408;51.326;12.070;2023-05-10T02:48:52;5.32;;;3.13;;
77332;SDS011;66408;51.326;12.070;2023-05-10T02:51:19;5.30;;;2.97;;
77332;SDS011;66408;51.326;12.070;2023-05-10T02:53:51;5.18;;;3.05;;
77332;SDS011;66408;51.326;12.070;2023-05-10T02:56:56;6.90;;;2.80;;
77332;SDS011;66408;51.326;12.070;2023-05-10T02:59:17;5.53;;;2.85;;
77332;SDS011;66408;51.326;12.070;2023-05-10T03:01:44;5.18;;;3.10;;
77332;SDS011;66408;51.326;12.070;2023-05-10T03:04:11;4.13;;;2.47;;
77332;SDS011;66408;51.326;12.070;2023-05-10T03:06:37;4.60;;;2.70;;
77332;SDS011;66408;51.326;12.070;2023-05-10T03:09:04;4.70;;;3.17;;
77332;SDS011;66408;51.326;12.070;2023-05-10T03:16:52;5.38;;;2.58;;
77332;SDS011;66408;51.326;12.070;2023-05-10T03:19:43;5.35;;;3.08;;
77332;SDS011;66408;51.326;12.070;2023-05-10T03:22:40;4.70;;;3.13;;
77332;SDS011;66408;51.326;12.070;2023-05-10T03:25:10;5.25;;;2.80;;
77332;SDS011;66408;51.326;12.070;2023-05-10T03:27:39;4.38;;;2.53;;
77332;SDS011;66408;51.326;12.070;2023-05-10T03:30:08;7.55;;;2.90;;
77332;SDS011;66408;51.326;12.070;2023-05-10T03:32:38;4.70;;;2.65;;
77332;SDS011;66408;51.326;12.070;2023-05-10T03:35:11;4.75;;;2.53;;
77332;SDS011;66408;51.326;12.070;2023-05-10T03:37:39;5.97;;;2.63;;
77332;SDS011;66408;51.326;12.070;2023-05-10T03:40:06;6.40;;;2.90;;
77332;SDS011;66408;51.326;12.070;2023-05-10T03:42:34;6.65;;;2.85;;
77332;SDS011;66408;51.326;12.070;2023-05-10T03:45:01;6.30;;;3.17;;
77332;SDS011;66408;51.326;12.070;2023-05-10T03:47:28;5.25;;;2.70;;
77332;SDS011;66408;51.326;12.070;2023-05-10T03:49:56;5.38;;;2.83;;
77332;SDS011;66408;51.326;12.070;2023-05-10T03:52:22;5.40;;;3.03;;
77332;SDS011;66408;51.326;12.070;2023-05-10T03:54:49;5.00;;;2.80;;
77332;SDS011;66408;51.326;12.070;2023-05-10T03:57:16;5.03;;;2.67;;
77332;SDS011;66408;51.326;12.070;2023-05-10T03:59:43;5.03;;;2.80;;
77332;SDS011;66408;51.326;12.070;2023-05-10T04:02:10;4.22;;;2.67;;
77332;SDS011;66408;51.326;12.070;2023-05-10T04:04:37;7.82;;;3.13;;
77332;SDS011;66408;51.326;12.070;2023-05-10T04:07:04;4.68;;;2.65;;
77332;SDS011;66408;51.326;12.070;2023-05-10T04:09:31;5.72;;;2.63;;
77332;SDS011;66408;51.326;12.070;2023-05-10T04:11:58;5.32;;;3.08;;
77332;SDS011;66408;51.326;12.070;2023-05-10T04:14:25;3.47;;;2.40;;
77332;SDS011;66408;51.326;12.070;2023-05-10T04:16:52;8.85;;;3.08;;
77332;SDS011;66408;51.326;12.070;2023-05-10T04:19:19;4.53;;;2.83;;
77332;SDS011;66408;51.326;12.070;2023-05-10T04:21:46;4.63;;;2.65;;
77332;SDS011;66408;51.326;12.070;2023-05-10T04:24:13;6.05;;;3.10;;
77332;SDS011;66408;51.326;12.070;2023-05-10T04:26:40;5.82;;;2.85;;
77332;SDS011;66408;51.326;12.070;2023-05-10T04:29:07;6.18;;;2.70;;
77332;SDS011;66408;51.326;12.070;2023-05-10T04:31:33;8.15;;;3.05;;
77332;SDS011;66408;51.326;12.070;2023-05-10T04:34:02;7.82;;;3.30;;
77332;SDS011;66408;51.326;12.070;2023-05-10T04:36:29;6.75;;;3.40;;
77332;SDS011;66408;51.326;12.070;2023-05-10T04:38:56;8.18;;;3.40;;
77332;SDS011;66408;51.326;12.070;2023-05-10T04:41:23;11.10;;;4.07;;
77332;SDS011;66408;51.326;12.070;2023-05-10T04:43:49;7.03;;;3.10;;
77332;SDS011;66408;51.326;12.070;2023-05-10T04:46:16;7.80;;;3.28;;
77332;SDS011;66408;51.326;12.070;2023-05-10T04:48:43;7.82;;;3.20;;
77332;SDS011;66408;51.326;12.070;2023-05-10T04:51:10;12.10;;;3.97;;
77332;SDS011;66408;51.326;12.070;2023-05-10T04:53:37;8.52;;;3.58;;
77332;SDS011;66408;51.326;12.070;2023-05-10T04:56:05;10.15;;;3.63;;
77332;SDS011;66408;51.326;12.070;2023-05-10T04:58:32;7.22;;;3.60;;
77332;SDS011;66408;51.326;12.070;2023-05-10T05:01:04;6.85;;;3.15;;
77332;SDS011;66408;51.326;12.070;2023-05-10T05:03:32;9.63;;;3.53;;
77332;SDS011;66408;51.326;12.070;2023-05-10T05:05:59;5.40;;;3.30;;
77332;SDS011;66408;51.326;12.070;2023-05-10T05:08:26;7.07;;;3.78;;
77332;SDS011;66408;51.326;12.070;2023-05-10T05:10:53;8.18;;;4.10;;
77332;SDS011;66408;51.326;12.070;2023-05-10T05:13:20;5.68;;;2.78;;
77332;SDS011;66408;51.326;12.070;2023-05-10T05:15:48;6.55;;;3.10;;
77332;SDS011;66408;51.326;12.070;2023-05-10T05:18:14;4.38;;;2.75;;
77332;SDS011;66408;51.326;12.070;2023-05-10T05:20:41;4.53;;;2.60;;
77332;SDS011;66408;51.326;12.070;2023-05-10T05:23:08;5.57;;;3.50;;
77332;SDS011;66408;51.326;12.070;2023-05-10T05:25:35;9.23;;;3.35;;
77332;SDS011;66408;51.326;12.070;2023-05-10T05:28:02;5.45;;;2.97;;
77332;SDS011;66408;51.326;12.070;2023-05-10T05:30:29;5.18;;;3.25;;
77332;SDS011;66408;51.326;12.070;2023-05-10T05:32:56;7.90;;;3.33;;
77332;SDS011;66408;51.326;12.070;2023-05-10T05:35:23;7.32;;;3.50;;
77332;SDS011;66408;51.326;12.070;2023-05-10T05:37:49;7.57;;;3.45;;
77332;SDS011;66408;51.326;12.070;2023-05-10T05:40:16;6.45;;;2.97;;
77332;SDS011;66408;51.326;12.070;2023-05-10T05:42:43;4.50;;;2.92;;
77332;SDS011;66408;51.326;12.070;2023-05-10T05:45:10;7.35;;;2.95;;
77332;SDS011;66408;51.326;12.070;2023-05-10T05:47:39;6.30;;;3.28;;
77332;SDS011;66408;51.326;12.070;2023-05-10T05:50:06;7.32;;;2.80;;
77332;SDS011;66408;51.326;12.070;2023-05-10T05:52:33;6.93;;;3.40;;
77332;SDS011;66408;51.326;12.070;2023-05-10T05:55:00;5.13;;;3.10;;
77332;SDS011;66408;51.326;12.070;2023-05-10T05:57:27;4.97;;;2.83;;
77332;SDS011;66408;51.326;12.070;2023-05-10T05:59:54;5.55;;;2.92;;
77332;SDS011;66408;51.326;12.070;2023-05-10T06:02:20;5.55;;;3.05;;
77332;SDS011;66408;51.326;12.070;2023-05-10T06:04:47;7.10;;;3.00;;
77332;SDS011;66408;51.326;12.070;2023-05-10T06:07:14;4.22;;;2.95;;
77332;SDS011;66408;51.326;12.070;2023-05-10T06:09:42;5.70;;;3.05;;
77332;SDS011;66408;51.326;12.070;2023-05-10T06:12:08;4.72;;;2.90;;
77332;SDS011;66408;51.326;12.070;2023-05-10T06:14:34;4.55;;;2.80;;
77332;SDS011;66408;51.326;12.070;2023-05-10T06:17:01;5.60;;;2.97;;
77332;SDS011;66408;51.326;12.070;2023-05-10T06:19:30;5.38;;;2.90;;
77332;SDS011;66408;51.326;12.070;2023-05-10T06:21:56;5.25;;;2.90;;
77332;SDS011;66408;51.326;12.070;2023-05-10T06:24:23;5.57;;;2.90;;
77332;SDS011;66408;51.326;12.070;2023-05-10T06:26:49;5.63;;;2.88;;
77332;SDS011;66408;51.326;12.070;2023-05-10T06:29:16;7.70;;;3.42;;
77332;SDS011;66408;51.326;12.070;2023-05-10T06:31:43;4.90;;;3.00;;
77332;SDS011;66408;51.326;12.070;2023-05-10T06:34:10;6.28;;;2.97;;
77332;SDS011;66408;51.326;12.070;2023-05-10T06:36:37;4.57;;;3.20;;
77332;SDS011;66408;51.326;12.070;2023-05-10T06:39:04;6.53;;;3.42;;
77332;SDS011;66408;51.326;12.070;2023-05-10T06:41:31;6.18;;;3.00;;
77332;SDS011;66408;51.326;12.070;2023-05-10T06:43:58;5.80;;;2.70;;
77332;SDS011;66408;51.326;12.070;2023-05-10T06:46:24;6.95;;;3.10;;
77332;SDS011;66408;51.326;12.070;2023-05-10T06:48:51;4.97;;;2.78;;
77332;SDS011;66408;51.326;12.070;2023-05-10T06:51:17;6.07;;;3.00;;
77332;SDS011;66408;51.326;12.070;2023-05-10T06:53:44;6.90;;;2.83;;
77332;SDS011;66408;51.326;12.070;2023-05-10T06:56:10;5.43;;;3.05;;
77332;SDS011;66408;51.326;12.070;2023-05-10T06:58:37;5.70;;;2.88;;
77332;SDS011;66408;51.326;12.070;2023-05-10T07:01:04;6.18;;;2.88;;
77332;SDS011;66408;51.326;12.070;2023-05-10T07:03:31;6.57;;;2.95;;
77332;SDS011;66408;51.326;12.070;2023-05-10T07:06:01;3.55;;;2.70;;
77332;SDS011;66408;51.326;12.070;2023-05-10T07:08:43;3.80;;;2.15;;
77332;SDS011;66408;51.326;12.070;2023-05-10T07:11:10;5.20;;;2.78;;
77332;SDS011;66408;51.326;12.070;2023-05-10T07:13:36;5.07;;;2.50;;
77332;SDS011;66408;51.326;12.070;2023-05-10T07:16:05;5.75;;;2.65;;
77332;SDS011;66408;51.326;12.070;2023-05-10T07:18:32;9.50;;;3.15;;
77332;SDS011;66408;51.326;12.070;2023-05-10T07:20:59;5.95;;;3.00;;
77332;SDS011;66408;51.326;12.070;2023-05-10T07:23:25;6.07;;;3.10;;
77332;SDS011;66408;51.326;12.070;2023-05-10T07:25:52;5.03;;;2.92;;
77332;SDS011;66408;51.326;12.070;2023-05-10T07:28:19;5.88;;;3.28;;
77332;SDS011;66408;51.326;12.070;2023-05-10T07:30:46;5.10;;;2.90;;
77332;SDS011;66408;51.326;12.070;2023-05-10T07:33:13;5.35;;;3.28;;
77332;SDS011;66408;51.326;12.070;2023-05-10T07:35:40;4.75;;;3.30;;
77332;SDS011;66408;51.326;12.070;2023-05-10T07:38:07;5.00;;;3.30;;
77332;SDS011;66408;51.326;12.070;2023-05-10T07:40:33;6.18;;;3.38;;
77332;SDS011;66408;51.326;12.070;2023-05-10T07:43:00;4.95;;;3.05;;
77332;SDS011;66408;51.326;12.070;2023-05-10T07:45:28;5.60;;;3.03;;
77332;SDS011;66408;51.326;12.070;2023-05-10T07:47:54;7.20;;;3.08;;
77332;SDS011;66408;51.326;12.070;2023-05-10T07:50:21;4.38;;;2.97;;
77332;SDS011;66408;51.326;12.070;2023-05-10T07:52:47;6.10;;;3.25;;
77332;SDS011;66408;51.326;12.070;2023-05-10T07:55:14;4.47;;;3.08;;
77332;SDS011;66408;51.326;12.070;2023-05-10T07:57:41;5.10;;;2.83;;
77332;SDS011;66408;51.326;12.070;2023-05-10T08:00:08;6.32;;;3.17;;
77332;SDS011;66408;51.326;12.070;2023-05-10T08:02:35;4.65;;;3.13;;
77332;SDS011;66408;51.326;12.070;2023-05-10T08:05:02;5.10;;;3.08;;
77332;SDS011;66408;51.326;12.070;2023-05-10T08:07:29;5.28;;;3.05;;
77332;SDS011;66408;51.326;12.070;2023-05-10T08:09:55;5.43;;;3.30;;
77332;SDS011;66408;51.326;12.070;2023-05-10T08:12:22;5.72;;;3.40;;
77332;SDS011;66408;51.326;12.070;2023-05-10T08:14:48;6.47;;;3.47;;
77332;SDS011;66408;51.326;12.070;2023-05-10T08:17:15;4.45;;;3.15;;
77332;SDS011;66408;51.326;12.070;2023-05-10T08:19:43;5.95;;;3.38;;
77332;SDS011;66408;51.326;12.070;2023-05-10T08:22:10;6.35;;;3.92;;
77332;SDS011;66408;51.326;12.070;2023-05-10T08:24:36;5.05;;;3.03;;
77332;SDS011;66408;51.326;12.070;2023-05-10T08:27:04;4.97;;;3.65;;
77332;SDS011;66408;51.326;12.070;2023-05-10T08:29:31;6.25;;;3.63;;
77332;SDS011;66408;51.326;12.070;2023-05-10T08:32:15;5.25;;;3.50;;
77332;SDS011;66408;51.326;12.070;2023-05-10T08:34:41;7.15;;;3.92;;
77332;SDS011;66408;51.326;12.070;2023-05-10T08:37:08;6.75;;;4.65;;
77332;SDS011;66408;51.326;12.070;2023-05-10T08:39:35;7.50;;;3.97;;
77332;SDS011;66408;51.326;12.070;2023-05-10T08:42:03;5.97;;;3.45;;
77332;SDS011;66408;51.326;12.070;2023-05-10T08:44:31;5.57;;;3.45;;
77332;SDS011;66408;51.326;12.070;2023-05-10T08:47:02;7.15;;;3.53;;
77332;SDS011;66408;51.326;12.070;2023-05-10T08:49:32;7.80;;;3.85;;
77332;SDS011;66408;51.326;12.070;2023-05-10T08:52:00;6.40;;;3.70;;
77332;SDS011;66408;51.326;12.070;2023-05-10T08:54:30;6.20;;;4.05;;
77332;SDS011;66408;51.326;12.070;2023-05-10T08:56:58;4.57;;;3.63;;
77332;SDS011;66408;51.326;12.070;2023-05-10T08:59:24;7.63;;;4.15;;
77332;SDS011;66408;51.326;12.070;2023-05-10T09:01:51;6.30;;;3.55;;
77332;SDS011;66408;51.326;12.070;2023-05-10T09:04:20;6.15;;;3.85;;
77332;SDS011;66408;51.326;12.070;2023-05-10T09:06:47;6.18;;;4.18;;
77332;SDS011;66408;51.326;12.070;2023-05-10T09:09:14;8.02;;;4.15;;
77332;SDS011;66408;51.326;12.070;2023-05-10T09:11:42;5.80;;;3.72;;
77332;SDS011;66408;51.326;12.070;2023-05-10T09:14:09;8.88;;;4.25;;
77332;SDS011;66408;51.326;12.070;2023-05-10T09:16:39;6.55;;;3.80;;
77332;SDS011;66408;51.326;12.070;2023-05-10T09:19:06;6.32;;;4.03;;
77332;SDS011;66408;51.326;12.070;2023-05-10T09:21:34;6.97;;;3.83;;
77332;SDS011;66408;51.326;12.070;2023-05-10T09:24:04;7.25;;;4.07;;
77332;SDS011;66408;51.326;12.070;2023-05-10T09:26:32;9.45;;;4.03;;
77332;SDS011;66408;51.326;12.070;2023-05-10T09:28:59;7.50;;;4.20;;
77332;SDS011;66408;51.326;12.070;2023-05-10T09:32:00;6.10;;;4.00;;
77332;SDS011;66408;51.326;12.070;2023-05-10T09:34:29;9.10;;;4.30;;
77332;SDS011;66408;51.326;12.070;2023-05-10T09:36:59;7.00;;;4.03;;
77332;SDS011;66408;51.326;12.070;2023-05-10T09:39:31;8.55;;;4.50;;
77332;SDS011;66408;51.326;12.070;2023-05-10T09:42:05;7.93;;;4.28;;
77332;SDS011;66408;51.326;12.070;2023-05-10T09:44:34;8.07;;;4.35;;
77332;SDS011;66408;51.326;12.070;2023-05-10T09:47:01;6.82;;;4.22;;
77332;SDS011;66408;51.326;12.070;2023-05-10T09:49:28;8.07;;;4.38;;
77332;SDS011;66408;51.326;12.070;2023-05-10T09:52:05;6.07;;;4.00;;
77332;SDS011;66408;51.326;12.070;2023-05-10T09:54:33;6.32;;;3.90;;
77332;SDS011;66408;51.326;12.070;2023-05-10T09:57:01;6.68;;;4.53;;
77332;SDS011;66408;51.326;12.070;2023-05-10T09:59:28;9.13;;;4.72;;
77332;SDS011;66408;51.326;12.070;2023-05-10T10:01:57;7.10;;;4.55;;
77332;SDS011;66408;51.326;12.070;2023-05-10T10:04:26;7.20;;;4.43;;
77332;SDS011;66408;51.326;12.070;2023-05-10T10:06:59;10.32;;;5.13;;
77332;SDS011;66408;51.326;12.070;2023-05-10T10:09:27;5.97;;;4.00;;
77332;SDS011;66408;51.326;12.070;2023-05-10T10:11:54;6.30;;;4.45;;
77332;SDS011;66408;51.326;12.070;2023-05-10T10:14:23;8.90;;;4.45;;
77332;SDS011;66408;51.326;12.070;2023-05-10T10:16:50;6.25;;;4.25;;
77332;SDS011;66408;51.326;12.070;2023-05-10T10:19:33;6.70;;;4.65;;
77332;SDS011;66408;51.326;12.070;2023-05-10T10:22:01;8.55;;;4.97;;
77332;SDS011;66408;51.326;12.070;2023-05-10T10:24:27;7.68;;;4.63;;
77332;SDS011;66408;51.326;12.070;2023-05-10T10:26:55;6.95;;;4.88;;
77332;SDS011;66408;51.326;12.070;2023-05-10T10:32:05;7.70;;;5.18;;
77332;SDS011;66408;51.326;12.070;2023-05-10T10:34:33;7.32;;;4.45;;
77332;SDS011;66408;51.326;12.070;2023-05-10T10:37:04;6.80;;;4.68;;
77332;SDS011;66408;51.326;12.070;2023-05-10T10:39:32;7.82;;;4.55;;
77332;SDS011;66408;51.326;12.070;2023-05-10T10:41:59;8.13;;;4.75;;
77332;SDS011;66408;51.326;12.070;2023-05-10T10:47:03;7.45;;;4.35;;
77332;SDS011;66408;51.326;12.070;2023-05-10T10:49:33;6.82;;;4.75;;
77332;SDS011;66408;51.326;12.070;2023-05-10T10:52:14;8.10;;;4.43;;
77332;SDS011;66408;51.326;12.070;2023-05-10T10:54:49;8.65;;;5.30;;
77332;SDS011;66408;51.326;12.070;2023-05-10T10:57:18;7.68;;;4.35;;
77332;SDS011;66408;51.326;12.070;2023-05-10T10:59:45;5.80;;;3.85;;
77332;SDS011;66408;51.326;12.070;2023-05-10T11:02:33;5.30;;;3.60;;
77332;SDS011;66408;51.326;12.070;2023-05-10T11:05:39;5.20;;;3.63;;
77332;SDS011;66408;51.326;12.070;2023-05-10T11:08:12;5.97;;;3.50;;
77332;SDS011;66408;51.326;12.070;2023-05-10T11:10:39;7.93;;;3.53;;
77332;SDS011;66408;51.326;12.070;2023-05-10T11:13:07;6.97;;;4.10;;
77332;SDS011;66408;51.326;12.070;2023-05-10T11:15:36;5.13;;;3.42;;
77332;SDS011;66408;51.326;12.070;2023-05-10T11:18:16;6.15;;;3.42;;
77332;SDS011;66408;51.326;12.070;2023-05-10T11:20:44;5.80;;;3.72;;
77332;SDS011;66408;51.326;12.070;2023-05-10T11:23:16;6.10;;;3.45;;
77332;SDS011;66408;51.326;12.070;2023-05-10T11:25:47;4.75;;;3.20;;
77332;SDS011;66408;51.326;12.070;2023-05-10T11:28:16;6.13;;;3.58;;
77332;SDS011;66408;51.326;12.070;2023-05-10T11:30:44;5.45;;;3.22;;
77332;SDS011;66408;51.326;12.070;2023-05-10T11:33:18;4.53;;;3.20;;
77332;SDS011;66408;51.326;12.070;2023-05-10T11:35:45;5.18;;;3.05;;
77332;SDS011;66408;51.326;12.070;2023-05-10T11:38:13;5.65;;;3.45;;
77332;SDS011;66408;51.326;12.070;2023-05-10T11:40:40;5.25;;;3.33;;
77332;SDS011;66408;51.326;12.070;2023-05-10T11:43:08;6.15;;;3.53;;
77332;SDS011;66408;51.326;12.070;2023-05-10T11:45:37;6.43;;;4.00;;
77332;SDS011;66408;51.326;12.070;2023-05-10T11:48:04;6.38;;;3.55;;
77332;SDS011;66408;51.326;12.070;2023-05-10T11:50:31;6.47;;;3.50;;
77332;SDS011;66408;51.326;12.070;2023-05-10T11:52:58;5.75;;;4.45;;
77332;SDS011;66408;51.326;12.070;2023-05-10T11:55:25;6.57;;;4.65;;
77332;SDS011;66408;51.326;12.070;2023-05-10T11:57:53;6.10;;;4.28;;
77332;SDS011;66408;51.326;12.070;2023-05-10T12:00:21;6.75;;;4.28;;
77332;SDS011;66408;51.326;12.070;2023-05-10T12:02:48;8.10;;;4.88;;
77332;SDS011;66408;51.326;12.070;2023-05-10T12:05:15;6.78;;;4.25;;
77332;SDS011;66408;51.326;12.070;2023-05-10T12:07:42;7.05;;;4.28;;
77332;SDS011;66408;51.326;12.070;2023-05-10T12:10:10;5.70;;;3.83;;
77332;SDS011;66408;51.326;12.070;2023-05-10T12:12:42;6.15;;;4.32;;
77332;SDS011;66408;51.326;12.070;2023-05-10T12:15:22;4.80;;;2.72;;
77332;SDS011;66408;51.326;12.070;2023-05-10T12:17:49;3.45;;;1.00;;
77332;SDS011;66408;51.326;12.070;2023-05-10T12:20:18;1.15;;;0.52;;
77332;SDS011;66408;51.326;12.070;2023-05-10T12:25:15;1.83;;;0.50;;
77332;SDS011;66408;51.326;12.070;2023-05-10T12:27:50;1.30;;;0.60;;
77332;SDS011;66408;51.326;12.070;2023-05-10T12:30:27;1.92;;;0.80;;
77332;SDS011;66408;51.326;12.070;2023-05-10T12:33:08;1.00;;;0.73;;
77332;SDS011;66408;51.326;12.070;2023-05-10T12:35:43;1.25;;;0.80;;
77332;SDS011;66408;51.326;12.070;2023-05-10T12:40:59;2.08;;;0.98;;
77332;SDS011;66408;51.326;12.070;2023-05-10T12:43:26;1.67;;;0.80;;
77332;SDS011;66408;51.326;12.070;2023-05-10T12:45:53;1.50;;;0.60;;
77332;SDS011;66408;51.326;12.070;2023-05-10T12:48:20;1.85;;;1.00;;
77332;SDS011;66408;51.326;12.070;2023-05-10T12:50:47;2.22;;;1.00;;
77332;SDS011;66408;51.326;12.070;2023-05-10T12:53:14;1.17;;;0.77;;
77332;SDS011;66408;51.326;12.070;2023-05-10T12:55:42;1.90;;;0.85;;
77332;SDS011;66408;51.326;12.070;2023-05-10T12:58:09;1.98;;;0.77;;
77332;SDS011;66408;51.326;12.070;2023-05-10T13:00:39;1.70;;;0.77;;
77332;SDS011;66408;51.326;12.070;2023-05-10T13:03:05;1.42;;;0.93;;
77332;SDS011;66408;51.326;12.070;2023-05-10T13:05:32;1.70;;;0.90;;
77332;SDS011;66408;51.326;12.070;2023-05-10T13:07:59;2.17;;;0.80;;
77332;SDS011;66408;51.326;12.070;2023-05-10T13:10:26;1.55;;;0.80;;
77332;SDS011;66408;51.326;12.070;2023-05-10T13:12:54;2.47;;;1.63;;
77332;SDS011;66408;51.326;12.070;2023-05-10T13:15:20;2.17;;;1.00;;
77332;SDS011;66408;51.326;12.070;2023-05-10T13:17:47;1.98;;;1.35;;
77332;SDS011;66408;51.326;12.070;2023-05-10T13:20:14;2.10;;;1.17;;
77332;SDS011;66408;51.326;12.070;2023-05-10T13:22:43;2.63;;;1.48;;
77332;SDS011;66408;51.326;12.070;2023-05-10T13:25:10;1.85;;;0.90;;
77332;SDS011;66408;51.326;12.070;2023-05-10T13:27:38;2.00;;;1.13;;
77332;SDS011;66408;51.326;12.070;2023-05-10T13:30:06;2.00;;;1.02;;
77332;SDS011;66408;51.326;12.070;2023-05-10T13:32:34;2.00;;;0.90;;
77332;SDS011;66408;51.326;12.070;2023-05-10T13:35:02;1.63;;;0.70;;
77332;SDS011;66408;51.326;12.070;2023-05-10T13:37:29;1.73;;;0.90;;
77332;SDS011;66408;51.326;12.070;2023-05-10T13:39:56;1.60;;;0.93;;
77332;SDS011;66408;51.326;12.070;2023-05-10T13:42:23;2.03;;;1.02;;
77332;SDS011;66408;51.326;12.070;2023-05-10T13:44:50;1.52;;;0.93;;
77332;SDS011;66408;51.326;12.070;2023-05-10T13:47:17;1.60;;;1.00;;
77332;SDS011;66408;51.326;12.070;2023-05-10T13:49:44;2.25;;;1.08;;
77332;SDS011;66408;51.326;12.070;2023-05-10T13:52:10;1.55;;;0.93;;
77332;SDS011;66408;51.326;12.070;2023-05-10T13:54:38;3.92;;;1.25;;
77332;SDS011;66408;51.326;12.070;2023-05-10T13:57:05;2.00;;;1.15;;
77332;SDS011;66408;51.326;12.070;2023-05-10T13:59:31;1.83;;;1.40;;
77332;SDS011;66408;51.326;12.070;2023-05-10T14:01:58;1.65;;;1.10;;
77332;SDS011;66408;51.326;12.070;2023-05-10T14:04:26;1.58;;;1.00;;
77332;SDS011;66408;51.326;12.070;2023-05-10T14:06:52;1.65;;;1.00;;
77332;SDS011;66408;51.326;12.070;2023-05-10T14:09:19;1.30;;;0.80;;
77332;SDS011;66408;51.326;12.070;2023-05-10T14:11:46;1.67;;;1.02;;
77332;SDS011;66408;51.326;12.070;2023-05-10T14:14:12;1.85;;;1.10;;
77332;SDS011;66408;51.326;12.070;2023-05-10T14:16:42;1.55;;;1.00;;
77332;SDS011;66408;51.326;12.070;2023-05-10T14:19:10;1.25;;;0.70;;
77332;SDS011;66408;51.326;12.070;2023-05-10T14:21:37;1.17;;;0.77;;
77332;SDS011;66408;51.326;12.070;2023-05-10T14:24:04;1.38;;;0.57;;
77332;SDS011;66408;51.326;12.070;2023-05-10T14:26:31;1.77;;;0.82;;
77332;SDS011;66408;51.326;12.070;2023-05-10T14:28:57;1.35;;;0.90;;
77332;SDS011;66408;51.326;12.070;2023-05-10T14:31:25;1.60;;;0.80;;
77332;SDS011;66408;51.326;12.070;2023-05-10T14:33:52;1.33;;;0.80;;
77332;SDS011;66408;51.326;12.070;2023-05-10T14:36:19;1.48;;;0.70;;
77332;SDS011;66408;51.326;12.070;2023-05-10T14:38:45;1.65;;;1.00;;
77332;SDS011;66408;51.326;12.070;2023-05-10T14:41:12;2.33;;;1.00;;
77332;SDS011;66408;51.326;12.070;2023-05-10T14:43:41;1.25;;;0.90;;
77332;SDS011;66408;51.326;12.070;2023-05-10T14:46:08;1.45;;;1.00;;
77332;SDS011;66408;51.326;12.070;2023-05-10T14:48:35;1.35;;;0.80;;
77332;SDS011;66408;51.326;12.070;2023-05-10T14:51:01;1.20;;;0.82;;
77332;SDS011;66408;51.326;12.070;2023-05-10T14:53:29;1.23;;;0.80;;
77332;SDS011;66408;51.326;12.070;2023-05-10T14:55:56;1.52;;;0.77;;
77332;SDS011;66408;51.326;12.070;2023-05-10T14:58:32;1.15;;;0.60;;
77332;SDS011;66408;51.326;12.070;2023-05-10T15:00:59;1.55;;;0.60;;
77332;SDS011;66408;51.326;12.070;2023-05-10T15:03:27;0.90;;;0.70;;
77332;SDS011;66408;51.326;12.070;2023-05-10T15:05:54;1.73;;;0.68;;
77332;SDS011;66408;51.326;12.070;2023-05-10T15:08:23;1.92;;;0.63;;
77332;SDS011;66408;51.326;12.070;2023-05-10T15:10:53;1.67;;;1.08;;
77332;SDS011;66408;51.326;12.070;2023-05-10T15:13:22;2.58;;;0.60;;
77332;SDS011;66408;51.326;12.070;2023-05-10T15:15:48;1.35;;;0.63;;
77332;SDS011;66408;51.326;12.070;2023-05-10T15:18:15;3.15;;;0.90;;
77332;SDS011;66408;51.326;12.070;2023-05-10T15:20:42;1.13;;;0.70;;